Terminal Aerodrome Forecast
Issued by NWS Newport/Morehead City, NC

Home | Current Version | Previous Version | Graphics & Text | Print | Product List | Glossary On
Versions: 1 2 3 4 5 6 7 8 9 10 11 12 13 14 15 16 17 18 19 20 21 22 23 24 25 26
000
FTUS42 KMHX 191949 AAB
TAFEWN
TAF AMD
KEWN 191949Z 1920/2018 VRB10G20KT 2SM -TSRA SCT008 OVC025CB
     FM192030 20008KT P6SM VCTS BKN035CB BKN050
     FM200300 VRB04KT P6SM SCT250=

USA.gov is the U.S. government's official web portal to all federal, state and local government web resources and services.